Darstellungsparameter: Aktuell verwendete Einstellungen:
Skalierung der Graphiken ... ?
xyx+y,   Skalierungsfaktor:      Skalierung: Modus: x, Faktor: 1
Darstellungszeitraum ... ?
Vom - - bis: - -   Zeitraum: 12.02.2021 - 12.02.2021
Min/Max/Avg-Anzeige ... ?
Zeige MMA aktuell
Zeige MMA Monat
Zeige MMA alles
Zeige --A aktuell
Zeige --A Monat
Zeige --A alles
Keine MMA-Anzeige
MMA:
Keine MMA-Graphiken
MMA-Basis: 12.02.2021 - 12.02.2021
Quicknavigation für Darstellung... ?
Tage:      1T, 2T, 3T, 5T -1T -2T -3T -5T +1T +2T +3T +5T
Wochen: 1W, 2W, 3W -1W -2W -3W +1W +2W +3W
Monate: 1M, 3M, 6M -1M -3M -6M +1M +3M +6M
Jahre:    1J, 3J, 5J, 10J -1J -3J -5J -10J +1J +3J +5J +10J
Nutze für die Darstellung ... ?
Originaldaten oder Mittelwerte auf ...
Stundenbasis Tagesbasis Wochenbasis
Monatsbasis Jahresbasis      Datenbasis: Original-Daten
Darstellen als:
Statistik (Auto) Statistik J:M      Darstellung:
Zur Graphik,    zurück zur Übersicht aller Sensoren.
 
Tabellarische Datenbersicht: ?
 
Sensor: Nr:Datum:Temp:Feuchte:Taupunkt:
Aussen-T/F 1 12-02-2021 00:00:00 -4.7 C 80 % -7.61 C
2 12-02-2021 00:05:00 -4.7 C 81 % -7.45 C
3 12-02-2021 00:10:00 -4.8 C 81 % -7.55 C
4 12-02-2021 00:15:00 -4.9 C 81 % -7.65 C
5 12-02-2021 00:20:00 -5 C 81 % -7.75 C
6 12-02-2021 00:25:00 -5.1 C 81 % -7.84 C
7 12-02-2021 00:30:00 -5.1 C 82 % -7.69 C
8 12-02-2021 00:35:00 -5.2 C 82 % -7.78 C
9 12-02-2021 00:40:00 -5.2 C 82 % -7.78 C
10 12-02-2021 00:45:00 -5 C 81 % -7.75 C
11 12-02-2021 00:50:00 -4.8 C 80 % -7.71 C
12 12-02-2021 00:55:00 -4.8 C 80 % -7.71 C
13 12-02-2021 01:00:00 -4.9 C 80 % -7.81 C
14 12-02-2021 01:05:00 -5.1 C 81 % -7.84 C
15 12-02-2021 01:10:00 -5.2 C 81 % -7.94 C
16 12-02-2021 01:15:00 -5.3 C 81 % -8.04 C
17 12-02-2021 01:20:00 -5.4 C 82 % -7.98 C
18 12-02-2021 01:25:00 -5.4 C 82 % -7.98 C
19 12-02-2021 01:30:00 -5.3 C 82 % -7.88 C
20 12-02-2021 01:35:00 -5.4 C 82 % -7.98 C
21 12-02-2021 01:40:00 -5.4 C 82 % -7.98 C
22 12-02-2021 01:45:00 -5.6 C 82 % -8.18 C
23 12-02-2021 01:50:00 -5.7 C 82 % -8.27 C
24 12-02-2021 01:55:00 -5.8 C 82 % -8.37 C
25 12-02-2021 02:00:00 -5.9 C 83 % -8.31 C
Sensor: Nr:Datum:Temp:Feuchte:Taupunkt:
Aussen-T/F 26 12-02-2021 02:05:00 -6.1 C 83 % -8.51 C
27 12-02-2021 02:10:00 -6.2 C 84 % -8.45 C
28 12-02-2021 02:15:00 -6.3 C 84 % -8.55 C
29 12-02-2021 02:20:00 -6.4 C 85 % -8.5 C
30 12-02-2021 02:25:00 -6.4 C 85 % -8.5 C
31 12-02-2021 02:30:00 -6.6 C 85 % -8.7 C
32 12-02-2021 02:35:00 -6.6 C 86 % -8.55 C
33 12-02-2021 02:40:00 -6.7 C 86 % -8.64 C
34 12-02-2021 02:45:00 -6.8 C 86 % -8.74 C
35 12-02-2021 02:50:00 -6.8 C 86 % -8.74 C
36 12-02-2021 02:55:00 -6.8 C 87 % -8.59 C
37 12-02-2021 03:00:00 -6.7 C 87 % -8.5 C
38 12-02-2021 03:05:00 -6.7 C 87 % -8.5 C
39 12-02-2021 03:10:00 -6.8 C 86 % -8.74 C
40 12-02-2021 03:15:00 -6.9 C 87 % -8.69 C
41 12-02-2021 03:20:00 -6.9 C 87 % -8.69 C
42 12-02-2021 03:25:00 -6.9 C 87 % -8.69 C
43 12-02-2021 03:30:00 -6.9 C 87 % -8.69 C
44 12-02-2021 03:35:00 -6.9 C 88 % -8.55 C
45 12-02-2021 03:40:00 -6.9 C 88 % -8.55 C
46 12-02-2021 03:45:00 -6.9 C 88 % -8.55 C
47 12-02-2021 03:50:00 -6.8 C 88 % -8.45 C
48 12-02-2021 03:55:00 -6.6 C 88 % -8.25 C
49 12-02-2021 04:00:00 -6.4 C 88 % -8.05 C
50 12-02-2021 04:05:00 -6.3 C 88 % -7.96 C
Sensor: Nr:Datum:Temp:Feuchte:Taupunkt:
Aussen-T/F 51 12-02-2021 04:10:00 -6.1 C 87 % -7.91 C
52 12-02-2021 04:15:00 -6 C 87 % -7.81 C
53 12-02-2021 04:20:00 -6 C 87 % -7.81 C
54 12-02-2021 04:25:00 -6.1 C 87 % -7.91 C
55 12-02-2021 04:30:00 -6.1 C 87 % -7.91 C
56 12-02-2021 04:35:00 -6 C 87 % -7.81 C
57 12-02-2021 04:40:00 -6 C 87 % -7.81 C
58 12-02-2021 04:45:00 -5.9 C 87 % -7.71 C
59 12-02-2021 04:50:00 -5.8 C 87 % -7.61 C
60 12-02-2021 04:55:00 -5.7 C 86 % -7.66 C
61 12-02-2021 05:00:00 -5.5 C 86 % -7.46 C
62 12-02-2021 05:05:00 -5.4 C 85 % -7.52 C
63 12-02-2021 05:10:00 -5.3 C 85 % -7.42 C
64 12-02-2021 05:15:00 -5.3 C 84 % -7.57 C
65 12-02-2021 05:20:00 -5.2 C 84 % -7.47 C
66 12-02-2021 05:25:00 -5.2 C 84 % -7.47 C
67 12-02-2021 05:30:00 -5.2 C 84 % -7.47 C
68 12-02-2021 05:35:00 -5.2 C 83 % -7.63 C
69 12-02-2021 05:40:00 -5.2 C 84 % -7.47 C
70 12-02-2021 05:45:00 -5.3 C 83 % -7.73 C
71 12-02-2021 05:50:00 -5.3 C 84 % -7.57 C
72 12-02-2021 05:55:00 -5.4 C 84 % -7.67 C
73 12-02-2021 06:00:00 -5.4 C 84 % -7.67 C
74 12-02-2021 06:05:00 -5.5 C 84 % -7.77 C
75 12-02-2021 06:10:00 -5.6 C 84 % -7.87 C
Sensor: Nr:Datum:Temp:Feuchte:Taupunkt:
Aussen-T/F 76 12-02-2021 06:15:00 -5.6 C 84 % -7.87 C
77 12-02-2021 06:20:00 -5.7 C 85 % -7.81 C
78 12-02-2021 06:25:00 -5.7 C 85 % -7.81 C
79 12-02-2021 06:30:00 -5.8 C 85 % -7.91 C
80 12-02-2021 06:35:00 -5.9 C 85 % -8.01 C
81 12-02-2021 06:40:00 -6 C 85 % -8.11 C
82 12-02-2021 06:45:00 -6.1 C 86 % -8.05 C
83 12-02-2021 06:50:00 -6.2 C 86 % -8.15 C
84 12-02-2021 06:55:00 -6.3 C 86 % -8.25 C
85 12-02-2021 07:00:00 -6.4 C 86 % -8.35 C
86 12-02-2021 07:05:00 -6.5 C 86 % -8.45 C
87 12-02-2021 07:10:00 -6.6 C 86 % -8.55 C
88 12-02-2021 07:15:00 -6.7 C 87 % -8.5 C
89 12-02-2021 07:20:00 -6.7 C 87 % -8.5 C
90 12-02-2021 07:25:00 -6.8 C 87 % -8.59 C
91 12-02-2021 07:30:00 -6.8 C 87 % -8.59 C
92 12-02-2021 07:35:00 -6.9 C 87 % -8.69 C
93 12-02-2021 07:40:00 -7 C 88 % -8.65 C
94 12-02-2021 07:45:00 -7.1 C 88 % -8.74 C
95 12-02-2021 07:50:00 -7.2 C 88 % -8.84 C
96 12-02-2021 07:55:00 -7.2 C 88 % -8.84 C
97 12-02-2021 08:00:00 -7.3 C 88 % -8.94 C
98 12-02-2021 08:05:00 -7.3 C 88 % -8.94 C
99 12-02-2021 08:10:00 -7.4 C 89 % -8.9 C
100 12-02-2021 08:15:00 -7.4 C 89 % -8.9 C
Sensor: Nr:Datum:Temp:Feuchte:Taupunkt:
Aussen-T/F 101 12-02-2021 08:20:00 -7.4 C 89 % -8.9 C
102 12-02-2021 08:25:00 -7.4 C 89 % -8.9 C
103 12-02-2021 08:30:00 -7.4 C 89 % -8.9 C
104 12-02-2021 08:35:00 -7.4 C 89 % -8.9 C
105 12-02-2021 08:40:00 -7.4 C 89 % -8.9 C
106 12-02-2021 08:45:00 -7.4 C 90 % -8.75 C
107 12-02-2021 08:50:00 -7.4 C 90 % -8.75 C
108 12-02-2021 08:55:00 -7.4 C 90 % -8.75 C
109 12-02-2021 09:00:00 -7.3 C 90 % -8.65 C
110 12-02-2021 09:05:00 -7.3 C 90 % -8.65 C
111 12-02-2021 09:10:00 -7.3 C 90 % -8.65 C
112 12-02-2021 09:15:00 -7.3 C 90 % -8.65 C
113 12-02-2021 09:20:00 -7.2 C 90 % -8.56 C
114 12-02-2021 09:25:00 -7.2 C 90 % -8.56 C
115 12-02-2021 09:30:00 -7.1 C 90 % -8.46 C
116 12-02-2021 09:35:00 -7.1 C 90 % -8.46 C
117 12-02-2021 09:40:00 -7 C 90 % -8.36 C
118 12-02-2021 09:45:00 -6.9 C 90 % -8.26 C
119 12-02-2021 09:50:00 -6.9 C 90 % -8.26 C
120 12-02-2021 09:55:00 -6.8 C 90 % -8.16 C
121 12-02-2021 10:00:00 -6.8 C 90 % -8.16 C
122 12-02-2021 10:05:00 -6.8 C 90 % -8.16 C
123 12-02-2021 10:10:00 -6.7 C 90 % -8.06 C
124 12-02-2021 10:15:00 -6.5 C 90 % -7.86 C
125 12-02-2021 10:20:00 -6.4 C 89 % -7.91 C
Sensor: Nr:Datum:Temp:Feuchte:Taupunkt:
Aussen-T/F 126 12-02-2021 10:25:00 -6.2 C 89 % -7.71 C
127 12-02-2021 10:30:00 -6.1 C 88 % -7.76 C
128 12-02-2021 10:35:00 -6 C 88 % -7.66 C
129 12-02-2021 10:40:00 -5.9 C 88 % -7.56 C
130 12-02-2021 10:45:00 -5.7 C 87 % -7.51 C
131 12-02-2021 10:50:00 -5.6 C 86 % -7.56 C
132 12-02-2021 10:55:00 -5.3 C 85 % -7.42 C
133 12-02-2021 11:00:00 -5.1 C 84 % -7.38 C
134 12-02-2021 11:05:00 -4.8 C 82 % -7.39 C
135 12-02-2021 11:10:00 -4.6 C 81 % -7.36 C
136 12-02-2021 11:15:00 -4.3 C 78 % -7.55 C
137 12-02-2021 11:20:00 -4.1 C 77 % -7.52 C
138 12-02-2021 11:25:00 -3.9 C 76 % -7.5 C
139 12-02-2021 11:30:00 -3.8 C 75 % -7.57 C
140 12-02-2021 11:35:00 -3.7 C 74 % -7.65 C
141 12-02-2021 11:40:00 -3.5 C 73 % -7.63 C
142 12-02-2021 11:45:00 -3.4 C 73 % -7.53 C
143 12-02-2021 11:50:00 -3.3 C 72 % -7.62 C
144 12-02-2021 11:55:00 -3.2 C 72 % -7.52 C
145 12-02-2021 12:00:00 -3.1 C 72 % -7.42 C
146 12-02-2021 12:05:00 -2.9 C 72 % -7.23 C
147 12-02-2021 12:10:00 -2.9 C 71 % -7.41 C
148 12-02-2021 12:15:00 -2.8 C 71 % -7.31 C
149 12-02-2021 12:20:00 -2.7 C 71 % -7.22 C
150 12-02-2021 12:25:00 -2.5 C 71 % -7.03 C
Sensor: Nr:Datum:Temp:Feuchte:Taupunkt:
Aussen-T/F 151 12-02-2021 12:30:00 -2.4 C 70 % -7.11 C
152 12-02-2021 12:35:00 -2.3 C 69 % -7.2 C
153 12-02-2021 12:40:00 -2.2 C 69 % -7.11 C
154 12-02-2021 12:45:00 -2.1 C 68 % -7.2 C
155 12-02-2021 12:50:00 -2.1 C 68 % -7.2 C
156 12-02-2021 12:55:00 -2 C 67 % -7.3 C
157 12-02-2021 13:00:00 -1.9 C 67 % -7.2 C
158 12-02-2021 13:05:00 -1.9 C 66 % -7.4 C
159 12-02-2021 13:10:00 -1.8 C 65 % -7.5 C
160 12-02-2021 13:15:00 -1.8 C 65 % -7.5 C
161 12-02-2021 13:20:00 -1.7 C 67 % -7.01 C
162 12-02-2021 13:25:00 -1.4 C 65 % -7.12 C
163 12-02-2021 13:30:00 -1.3 C 66 % -6.82 C
164 12-02-2021 13:35:00 -1.3 C 65 % -7.02 C
165 12-02-2021 13:40:00 -1.3 C 64 % -7.22 C
166 12-02-2021 13:45:00 -1.3 C 65 % -7.02 C
167 12-02-2021 13:50:00 -1.3 C 65 % -7.02 C
168 12-02-2021 13:55:00 -1.3 C 65 % -7.02 C
169 12-02-2021 14:00:00 -1.2 C 64 % -7.13 C
170 12-02-2021 14:05:00 -1.2 C 65 % -6.93 C
171 12-02-2021 14:10:00 -1.1 C 64 % -7.03 C
172 12-02-2021 14:15:00 -1 C 65 % -6.74 C
173 12-02-2021 14:20:00 -1 C 64 % -6.94 C
174 12-02-2021 14:25:00 -1.1 C 63 % -7.24 C
175 12-02-2021 14:30:00 -1 C 63 % -7.14 C
Sensor: Nr:Datum:Temp:Feuchte:Taupunkt:
Aussen-T/F 176 12-02-2021 14:35:00 -1 C 62 % -7.35 C
177 12-02-2021 14:40:00 -1.1 C 62 % -7.44 C
178 12-02-2021 14:45:00 -1.1 C 63 % -7.24 C
179 12-02-2021 14:50:00 -0.9 C 63 % -7.05 C
180 12-02-2021 14:55:00 -0.7 C 63 % -6.86 C
181 12-02-2021 15:00:00 -0.7 C 62 % -7.06 C
182 12-02-2021 15:05:00 -0.8 C 62 % -7.16 C
183 12-02-2021 15:10:00 -0.8 C 62 % -7.16 C
184 12-02-2021 15:15:00 -0.8 C 63 % -6.95 C
185 12-02-2021 15:20:00 -0.8 C 62 % -7.16 C
186 12-02-2021 15:25:00 -1 C 62 % -7.35 C
187 12-02-2021 15:30:00 -1.2 C 62 % -7.54 C
188 12-02-2021 15:35:00 -1.2 C 62 % -7.54 C
189 12-02-2021 15:40:00 -1.2 C 63 % -7.33 C
190 12-02-2021 15:45:00 -1.2 C 63 % -7.33 C
191 12-02-2021 15:50:00 -1.2 C 63 % -7.33 C
192 12-02-2021 15:55:00 -1.2 C 63 % -7.33 C
193 12-02-2021 16:00:00 -1.3 C 62 % -7.63 C
194 12-02-2021 16:05:00 -1.4 C 63 % -7.52 C
195 12-02-2021 16:10:00 -1.4 C 63 % -7.52 C
196 12-02-2021 16:15:00 -1.4 C 64 % -7.32 C
197 12-02-2021 16:20:00 -1.4 C 64 % -7.32 C
198 12-02-2021 16:25:00 -1.3 C 64 % -7.22 C
199 12-02-2021 16:30:00 -1.3 C 62 % -7.63 C
200 12-02-2021 16:35:00 -1.2 C 64 % -7.13 C
Sensor: Nr:Datum:Temp:Feuchte:Taupunkt:
Aussen-T/F 201 12-02-2021 16:40:00 -1.2 C 65 % -6.93 C
202 12-02-2021 16:45:00 -1.2 C 65 % -6.93 C
203 12-02-2021 16:50:00 -1.3 C 66 % -6.82 C
204 12-02-2021 16:55:00 -1.3 C 65 % -7.02 C
205 12-02-2021 17:00:00 -1.4 C 65 % -7.12 C
206 12-02-2021 17:05:00 -1.5 C 65 % -7.21 C
207 12-02-2021 17:10:00 -1.6 C 66 % -7.11 C
208 12-02-2021 17:15:00 -1.6 C 67 % -6.91 C
209 12-02-2021 17:20:00 -1.7 C 67 % -7.01 C
210 12-02-2021 17:25:00 -1.7 C 69 % -6.63 C
211 12-02-2021 17:30:00 -1.8 C 69 % -6.72 C
212 12-02-2021 17:35:00 -1.9 C 69 % -6.82 C
213 12-02-2021 17:40:00 -2 C 70 % -6.73 C
214 12-02-2021 17:45:00 -2.1 C 70 % -6.83 C
215 12-02-2021 17:50:00 -2.2 C 70 % -6.92 C
216 12-02-2021 17:55:00 -2.3 C 71 % -6.83 C
217 12-02-2021 18:00:00 -2.5 C 72 % -6.84 C
218 12-02-2021 18:05:00 -2.6 C 73 % -6.76 C
219 12-02-2021 18:10:00 -2.7 C 74 % -6.68 C
220 12-02-2021 18:15:00 -2.9 C 74 % -6.87 C
221 12-02-2021 18:20:00 -2.9 C 75 % -6.7 C
222 12-02-2021 18:25:00 -3.1 C 75 % -6.89 C
223 12-02-2021 18:30:00 -3.2 C 76 % -6.82 C
224 12-02-2021 18:35:00 -3.4 C 76 % -7.01 C
225 12-02-2021 18:40:00 -3.6 C 77 % -7.04 C
Sensor: Nr:Datum:Temp:Feuchte:Taupunkt:
Aussen-T/F 226 12-02-2021 18:45:00 -3.7 C 78 % -6.97 C
227 12-02-2021 18:50:00 -3.8 C 79 % -6.9 C
228 12-02-2021 18:55:00 -3.9 C 80 % -6.83 C
229 12-02-2021 19:00:00 -4.1 C 80 % -7.03 C
230 12-02-2021 19:05:00 -4.2 C 80 % -7.13 C
231 12-02-2021 19:10:00 -4.3 C 81 % -7.06 C
232 12-02-2021 19:15:00 -4.4 C 81 % -7.16 C
233 12-02-2021 19:20:00 -4.4 C 82 % -7 C
234 12-02-2021 19:25:00 -4.5 C 82 % -7.1 C
235 12-02-2021 19:30:00 -4.6 C 82 % -7.2 C
236 12-02-2021 19:35:00 -4.7 C 82 % -7.3 C
237 12-02-2021 19:40:00 -4.7 C 82 % -7.3 C
238 12-02-2021 19:45:00 -4.8 C 82 % -7.39 C
239 12-02-2021 19:50:00 -4.8 C 82 % -7.39 C
240 12-02-2021 19:55:00 -4.8 C 82 % -7.39 C
241 12-02-2021 20:00:00 -4.9 C 82 % -7.49 C
242 12-02-2021 20:05:00 -5 C 82 % -7.59 C
243 12-02-2021 20:10:00 -5 C 82 % -7.59 C
244 12-02-2021 20:15:00 -5.1 C 82 % -7.69 C
245 12-02-2021 20:20:00 -5.2 C 82 % -7.78 C
246 12-02-2021 20:25:00 -5.3 C 82 % -7.88 C
247 12-02-2021 20:30:00 -5.3 C 83 % -7.73 C
248 12-02-2021 20:35:00 -5.2 C 82 % -7.78 C
249 12-02-2021 20:40:00 -5.2 C 82 % -7.78 C
250 12-02-2021 20:45:00 -5.3 C 82 % -7.88 C
Sensor: Nr:Datum:Temp:Feuchte:Taupunkt:
Aussen-T/F 251 12-02-2021 20:50:00 -5.4 C 82 % -7.98 C
252 12-02-2021 20:55:00 -5.5 C 83 % -7.92 C
253 12-02-2021 21:00:00 -5.6 C 83 % -8.02 C
254 12-02-2021 21:05:00 -5.7 C 83 % -8.12 C
255 12-02-2021 21:10:00 -5.7 C 83 % -8.12 C
256 12-02-2021 21:15:00 -5.7 C 84 % -7.96 C
257 12-02-2021 21:20:00 -5.8 C 83 % -8.22 C
258 12-02-2021 21:25:00 -5.8 C 84 % -8.06 C
259 12-02-2021 21:30:00 -5.8 C 84 % -8.06 C
260 12-02-2021 21:35:00 -5.8 C 83 % -8.22 C
261 12-02-2021 21:40:00 -5.9 C 83 % -8.31 C
262 12-02-2021 21:45:00 -6 C 84 % -8.26 C
263 12-02-2021 21:50:00 -6.1 C 84 % -8.36 C
264 12-02-2021 21:55:00 -6.2 C 84 % -8.45 C
265 12-02-2021 22:00:00 -6.2 C 84 % -8.45 C
266 12-02-2021 22:05:00 -6.2 C 84 % -8.45 C
267 12-02-2021 22:10:00 -6.2 C 85 % -8.3 C
268 12-02-2021 22:15:00 -6.2 C 85 % -8.3 C
269 12-02-2021 22:20:00 -6.2 C 84 % -8.45 C
270 12-02-2021 22:25:00 -6.3 C 84 % -8.55 C
271 12-02-2021 22:30:00 -6.2 C 84 % -8.45 C
272 12-02-2021 22:35:00 -6.3 C 84 % -8.55 C
273 12-02-2021 22:40:00 -6.3 C 84 % -8.55 C
274 12-02-2021 22:45:00 -6.5 C 84 % -8.75 C
275 12-02-2021 22:50:00 -6.6 C 85 % -8.7 C
Sensor: Nr:Datum:Temp:Feuchte:Taupunkt:
Aussen-T/F 276 12-02-2021 22:55:00 -6.6 C 85 % -8.7 C
277 12-02-2021 23:00:00 -6.7 C 85 % -8.79 C
278 12-02-2021 23:05:00 -6.7 C 85 % -8.79 C
279 12-02-2021 23:10:00 -6.8 C 85 % -8.89 C
280 12-02-2021 23:15:00 -6.7 C 85 % -8.79 C
281 12-02-2021 23:20:00 -6.7 C 85 % -8.79 C
282 12-02-2021 23:25:00 -6.8 C 85 % -8.89 C
283 12-02-2021 23:30:00 -6.9 C 85 % -8.99 C
284 12-02-2021 23:35:00 -7.2 C 85 % -9.28 C
285 12-02-2021 23:40:00 -7.3 C 85 % -9.38 C
286 12-02-2021 23:45:00 -7.3 C 86 % -9.23 C
287 12-02-2021 23:50:00 -7.3 C 86 % -9.23 C
288 12-02-2021 23:55:00 -7.2 C 86 % -9.14 C

Legende:
   Min
   Max


Maximal/Minimal-Werte vom 12.02.2021 - 12.02.2021

Sensor Min Max Avg
Temp
(Aussen-T/F)
-7.4 °C
12-02-2021  08:10:00
-0.7 °C
12-02-2021  14:55:00
-4.73 °C
Feuchte
(Aussen-T/F)
62 %
12-02-2021  14:35:00
90 %
12-02-2021  08:45:00
79.49 %
Taupunkt
(Aussen-T/F)
-9.38 C
12-02-2021  23:40:00
-6.63 C
12-02-2021  17:25:00
-7.8 C

Die Daten stammen von einer Davis Vantage Pro 2 Wetter-Station und werden unter Linux mit der Software wview2wettercgi und aufbereitet. Alle Angaben erfolgen ohne Gewähr für ihre Vollständigkeit oder Richtigkeit.
Kontakt: Rainer Krienke krienke@uni-koblenz.de . Meine Webseiten an der Uni Koblenz oder privat.
Version: $Revision: 0.78 $